createdAt,value
2022-12-04T00:00:14.465Z,38.92
2022-12-04T00:02:41.904Z,38.22
2022-12-04T00:05:09.833Z,38.80
2022-12-04T00:07:36.807Z,39.65
2022-12-04T00:10:04.541Z,39.78
2022-12-04T00:12:31.268Z,38.97
2022-12-04T00:15:24.628Z,39.08
2022-12-04T00:17:50.394Z,40.20
2022-12-04T00:20:17.160Z,36.95
2022-12-04T00:22:43.824Z,39.75
2022-12-04T00:25:10.554Z,40.42
2022-12-04T00:27:39.881Z,39.58
2022-12-04T00:30:07.299Z,38.70
2022-12-04T00:32:34.035Z,39.80
2022-12-04T00:35:00.706Z,40.25
2022-12-04T00:37:27.447Z,40.00
2022-12-04T00:39:54.603Z,40.42
2022-12-04T00:42:21.513Z,39.47
2022-12-04T00:44:48.324Z,39.33
2022-12-04T00:47:15.009Z,40.03
2022-12-04T00:49:41.766Z,40.33
2022-12-04T00:52:08.530Z,39.10
2022-12-04T00:54:35.233Z,40.17
2022-12-04T00:57:01.888Z,41.03
2022-12-04T00:59:28.613Z,39.38
2022-12-04T01:01:55.266Z,38.88
2022-12-04T01:04:22.006Z,40.92
2022-12-04T01:06:48.834Z,37.65
2022-12-04T01:09:15.666Z,41.13
2022-12-04T01:11:42.331Z,40.30
2022-12-04T01:14:09.158Z,39.35
2022-12-04T01:16:38.093Z,40.40
2022-12-04T01:19:07.850Z,41.85
2022-12-04T01:21:35.908Z,40.97
2022-12-04T01:24:02.721Z,40.33
2022-12-04T01:26:31.041Z,41.42
2022-12-04T01:28:57.870Z,40.75
2022-12-04T01:31:25.326Z,40.83
2022-12-04T01:33:52.517Z,42.10
2022-12-04T01:36:23.440Z,40.70
2022-12-04T01:38:50.731Z,40.85
2022-12-04T01:41:24.291Z,41.60
2022-12-04T01:44:14.483Z,42.28
2022-12-04T01:46:43.064Z,41.20
2022-12-04T01:49:17.486Z,40.15
2022-12-04T01:51:52.826Z,41.47
2022-12-04T01:54:32.318Z,41.50
2022-12-04T01:57:12.900Z,40.30
2022-12-04T01:59:51.999Z,42.80
2022-12-04T02:02:25.308Z,40.47
2022-12-04T02:04:52.523Z,39.92
2022-12-04T02:07:19.183Z,40.67
2022-12-04T02:09:53.782Z,42.60
2022-12-04T02:12:36.670Z,41.13
2022-12-04T02:15:08.952Z,40.75
2022-12-04T02:17:57.317Z,41.83
2022-12-04T02:20:36.684Z,41.53
2022-12-04T02:23:18.230Z,40.10
2022-12-04T02:26:18.859Z,40.17
2022-12-04T02:28:55.981Z,42.20
2022-12-04T02:31:38.711Z,38.17
2022-12-04T02:34:16.837Z,41.75
2022-12-04T02:36:51.428Z,42.00
2022-12-04T02:39:31.011Z,42.22
2022-12-04T02:42:04.677Z,42.38
2022-12-04T02:44:41.899Z,42.30
2022-12-04T02:47:14.571Z,41.42
2022-12-04T02:49:47.176Z,41.63
2022-12-04T02:52:20.983Z,41.47
2022-12-04T02:54:53.513Z,40.58
2022-12-04T02:57:26.993Z,43.13
2022-12-04T02:59:57.118Z,41.60
2022-12-04T03:02:37.188Z,38.70
2022-12-04T03:05:10.187Z,41.40
2022-12-04T03:07:44.253Z,41.50
2022-12-04T03:10:17.425Z,41.83
2022-12-04T03:12:56.804Z,41.25
2022-12-04T03:15:28.109Z,42.25
2022-12-04T03:18:04.867Z,40.53
2022-12-04T03:20:34.799Z,41.33
2022-12-04T03:23:11.392Z,42.53
2022-12-04T03:25:52.779Z,41.38
2022-12-04T03:28:38.165Z,41.10
2022-12-04T03:31:08.010Z,38.63
2022-12-04T03:33:41.233Z,41.70
2022-12-04T03:36:16.535Z,40.40
2022-12-04T03:39:07.002Z,41.72
2022-12-04T03:41:54.583Z,41.60
2022-12-04T03:44:50.938Z,43.30
2022-12-04T03:47:24.732Z,42.35
2022-12-04T03:49:55.769Z,41.85
2022-12-04T03:52:40.511Z,41.65
2022-12-04T03:55:29.527Z,40.92
2022-12-04T03:58:02.220Z,41.75
2022-12-04T04:00:31.186Z,40.97
2022-12-04T04:03:06.749Z,41.92
2022-12-04T04:05:34.939Z,40.33
2022-12-04T04:08:23.589Z,40.85
2022-12-04T04:10:53.482Z,42.20
2022-12-04T04:13:42.886Z,42.08
2022-12-04T04:16:32.885Z,43.42
2022-12-04T04:19:20.531Z,42.35
2022-12-04T04:22:09.586Z,40.70
2022-12-04T04:24:46.491Z,42.28
2022-12-04T04:27:14.330Z,41.78
2022-12-04T04:29:47.982Z,44.87
2022-12-04T04:32:30.904Z,43.70
2022-12-04T04:35:17.083Z,43.25
2022-12-04T04:38:08.912Z,43.17
2022-12-04T04:40:49.856Z,41.88
2022-12-04T04:43:36.997Z,42.20
2022-12-04T04:46:22.626Z,43.83
2022-12-04T04:48:54.455Z,44.20
2022-12-04T04:51:22.280Z,44.00
2022-12-04T04:53:52.322Z,44.67
2022-12-04T04:56:19.971Z,43.22
2022-12-04T04:58:46.898Z,43.58
2022-12-04T05:01:16.897Z,42.55
2022-12-04T05:03:43.829Z,43.05
2022-12-04T05:06:10.552Z,44.70
2022-12-04T05:08:37.635Z,43.65
2022-12-04T05:11:05.448Z,43.80
2022-12-04T05:13:32.855Z,44.57
2022-12-04T05:16:08.521Z,43.83
2022-12-04T05:18:35.643Z,42.58
2022-12-04T05:21:07.617Z,43.35
2022-12-04T05:23:34.948Z,43.92
2022-12-04T05:26:04.233Z,42.65
2022-12-04T05:28:31.066Z,43.83
2022-12-04T05:30:59.334Z,42.03
2022-12-04T05:33:26.082Z,42.20
2022-12-04T05:36:11.763Z,42.97
2022-12-04T05:38:38.538Z,43.30
2022-12-04T05:41:06.572Z,44.55
2022-12-04T05:43:34.017Z,43.08
2022-12-04T05:46:05.275Z,41.05
2022-12-04T05:48:32.339Z,40.58
2022-12-04T05:50:59.261Z,43.38
2022-12-04T05:53:25.998Z,43.55
2022-12-04T05:55:57.564Z,43.15
2022-12-04T05:58:24.966Z,42.97
2022-12-04T06:00:52.948Z,41.63
2022-12-04T06:03:19.967Z,43.03
2022-12-04T06:05:46.678Z,41.47
2022-12-04T06:08:15.783Z,41.42
2022-12-04T06:10:42.679Z,40.72
2022-12-04T06:13:09.333Z,40.15
2022-12-04T06:15:40.560Z,40.50
2022-12-04T06:18:07.964Z,40.65
2022-12-04T06:20:35.169Z,41.15
2022-12-04T06:23:02.007Z,41.65
2022-12-04T06:25:29.056Z,41.08
2022-12-04T06:27:55.910Z,40.95
2022-12-04T06:30:22.798Z,39.08
2022-12-04T06:32:49.514Z,40.65
2022-12-04T06:35:16.351Z,39.58
2022-12-04T06:37:43.177Z,39.47
2022-12-04T06:40:10.418Z,38.45
2022-12-04T06:42:37.147Z,40.83
2022-12-04T06:45:04.231Z,40.97
2022-12-04T06:47:30.892Z,38.63
2022-12-04T06:49:58.012Z,39.13
2022-12-04T06:52:25.004Z,41.47
2022-12-04T06:54:51.706Z,38.63
2022-12-04T06:57:18.366Z,39.92
2022-12-04T06:59:45.097Z,39.25
2022-12-04T07:02:11.899Z,38.30
2022-12-04T07:04:38.707Z,37.95
2022-12-04T07:07:09.864Z,37.78
2022-12-04T07:09:36.860Z,38.08
2022-12-04T07:12:03.761Z,37.85
2022-12-04T07:14:30.463Z,38.45
2022-12-04T07:16:57.219Z,37.10
2022-12-04T07:19:24.271Z,38.78
2022-12-04T07:21:52.009Z,38.42
2022-12-04T07:24:18.844Z,37.78
2022-12-04T07:26:46.165Z,40.70
2022-12-04T07:29:13.418Z,40.25
2022-12-04T07:31:40.233Z,39.72
2022-12-04T07:34:07.994Z,39.20
2022-12-04T07:36:34.729Z,40.83
2022-12-04T07:39:01.428Z,38.78
2022-12-04T07:41:28.140Z,39.45
2022-12-04T07:43:54.891Z,40.35
2022-12-04T07:46:26.390Z,40.60
2022-12-04T07:48:56.658Z,39.88
2022-12-04T07:51:25.794Z,41.47
2022-12-04T07:53:53.489Z,43.13
2022-12-04T07:56:21.042Z,41.67
2022-12-04T07:58:48.169Z,40.90
2022-12-04T08:01:21.924Z,41.15
2022-12-04T08:03:50.680Z,42.40
2022-12-04T08:06:20.359Z,44.20
2022-12-04T08:08:47.570Z,43.20
2022-12-04T08:11:17.032Z,44.13
2022-12-04T08:13:44.156Z,44.17
2022-12-04T08:16:12.735Z,43.17
2022-12-04T08:20:08.046Z,42.60
2022-12-04T08:22:35.744Z,42.00
2022-12-04T08:25:02.561Z,42.60
2022-12-04T08:27:29.372Z,40.63
2022-12-04T08:29:56.763Z,44.88
2022-12-04T08:32:24.187Z,44.70
2022-12-04T08:34:55.635Z,41.20
2022-12-04T08:37:22.892Z,42.38
2022-12-04T08:39:49.692Z,42.83
2022-12-04T08:42:16.445Z,43.22
2022-12-04T08:44:43.139Z,39.50
2022-12-04T08:47:09.954Z,40.92
2022-12-04T08:49:36.744Z,42.55
2022-12-04T08:52:03.605Z,41.90
2022-12-04T08:54:34.562Z,40.28
2022-12-04T08:57:03.648Z,37.97
2022-12-04T08:59:30.392Z,41.00
2022-12-04T09:01:57.170Z,39.47
2022-12-04T09:04:23.978Z,36.78
2022-12-04T09:06:51.738Z,38.25
2022-12-04T09:09:18.495Z,39.20
2022-12-04T09:11:46.127Z,37.97
2022-12-04T09:14:13.210Z,40.22
2022-12-04T09:16:39.962Z,38.55
2022-12-04T09:19:06.647Z,37.83
2022-12-04T09:21:33.315Z,36.97
2022-12-04T09:24:00.412Z,36.95
2022-12-04T09:26:29.743Z,36.35
2022-12-04T09:28:59.270Z,37.42
2022-12-04T09:31:26.153Z,36.92
2022-12-04T09:33:53.098Z,36.05
2022-12-04T09:36:20.253Z,37.92
2022-12-04T09:38:49.465Z,37.55
2022-12-04T09:41:28.537Z,37.70
2022-12-04T09:44:10.253Z,36.30
2022-12-04T09:47:01.988Z,35.78
2022-12-04T09:50:13.995Z,35.72
2022-12-04T09:52:52.162Z,35.83
2022-12-04T09:55:50.083Z,35.20
2022-12-04T09:58:39.158Z,34.28
2022-12-04T10:01:06.650Z,33.63
2022-12-04T10:03:34.053Z,32.85
2022-12-04T10:06:22.429Z,35.33
2022-12-04T10:09:16.948Z,35.75
2022-12-04T10:11:51.573Z,35.03
2022-12-04T10:14:32.143Z,35.90
2022-12-04T10:17:32.874Z,34.70
2022-12-04T10:20:28.266Z,32.35
2022-12-04T10:23:13.696Z,32.88
2022-12-04T10:25:42.154Z,32.13
2022-12-04T10:28:32.102Z,32.28
2022-12-04T10:31:02.221Z,31.58
2022-12-04T10:33:35.442Z,31.77
2022-12-04T10:36:02.953Z,30.88
2022-12-04T10:38:51.263Z,30.48
2022-12-04T10:41:45.674Z,30.13
2022-12-04T10:44:17.275Z,28.13
2022-12-04T10:46:46.296Z,27.88
2022-12-04T10:49:23.959Z,28.40
2022-12-04T10:51:50.851Z,28.48
2022-12-04T10:54:26.164Z,26.52
2022-12-04T10:57:02.131Z,25.25
2022-12-04T10:59:29.423Z,23.73
2022-12-04T11:02:19.657Z,27.13
2022-12-04T11:04:55.528Z,26.42
2022-12-04T11:07:26.651Z,26.00
2022-12-04T11:10:43.198Z,27.63
2022-12-04T11:13:12.639Z,26.67
2022-12-04T11:15:51.127Z,29.55
2022-12-04T11:18:20.749Z,25.90
2022-12-04T11:21:12.711Z,26.08
2022-12-04T11:23:48.017Z,25.70
2022-12-04T11:26:15.511Z,25.60
2022-12-04T11:28:52.322Z,23.55
2022-12-04T11:31:21.961Z,24.20
2022-12-04T11:33:55.013Z,23.58
2022-12-04T11:36:34.265Z,23.90
2022-12-04T11:39:18.378Z,23.30
2022-12-04T11:41:45.396Z,26.02
2022-12-04T11:44:28.993Z,22.10
2022-12-04T11:47:00.170Z,21.70
2022-12-04T11:49:27.284Z,21.45
2022-12-04T11:52:00.025Z,19.98
2022-12-04T11:54:55.390Z,21.05
2022-12-04T11:57:47.504Z,18.52
2022-12-04T12:00:20.311Z,18.27
2022-12-04T12:03:10.138Z,17.52
2022-12-04T12:06:12.223Z,18.55
2022-12-04T12:09:01.595Z,15.85
2022-12-04T12:11:51.835Z,17.60
2022-12-04T12:14:19.134Z,17.83
2022-12-04T12:17:11.273Z,18.00
2022-12-04T12:19:49.951Z,17.77
2022-12-04T12:25:40.076Z,16.65
2022-12-04T12:28:34.797Z,16.02
2022-12-04T12:31:19.534Z,16.20
2022-12-04T12:33:51.928Z,15.43
2022-12-04T12:36:21.755Z,17.88
2022-12-04T12:38:56.199Z,19.42
2022-12-04T12:41:37.277Z,16.48
2022-12-04T12:44:23.079Z,15.82
2022-12-04T12:46:58.300Z,15.38
2022-12-04T12:49:47.650Z,15.73
2022-12-04T12:52:34.188Z,14.40
2022-12-04T12:55:14.382Z,14.68
2022-12-04T12:57:49.697Z,15.32
2022-12-04T13:00:21.444Z,15.00
2022-12-04T13:03:03.628Z,15.05
2022-12-04T13:05:48.830Z,15.25
2022-12-04T13:08:27.768Z,14.18
2022-12-04T13:11:21.063Z,17.05
2022-12-04T13:13:58.520Z,15.93
2022-12-04T13:16:38.402Z,15.30
2022-12-04T13:19:11.206Z,15.27
2022-12-04T13:21:45.278Z,14.52
2022-12-04T13:24:49.838Z,15.60
2022-12-04T13:27:58.762Z,15.10
2022-12-04T13:30:33.875Z,14.60
2022-12-04T13:33:34.204Z,15.30
2022-12-04T13:36:45.503Z,15.60
2022-12-04T13:39:49.672Z,16.33
2022-12-04T13:42:27.483Z,15.85
2022-12-04T13:44:59.802Z,15.38
2022-12-04T13:47:35.343Z,15.93
2022-12-04T13:50:20.470Z,15.07
2022-12-04T13:52:49.297Z,16.63
2022-12-04T13:55:37.934Z,16.40
2022-12-04T14:00:41.775Z,16.35
2022-12-04T14:03:33.190Z,17.15
2022-12-04T14:06:05.306Z,15.93
2022-12-04T14:08:56.643Z,18.33
2022-12-04T14:11:24.478Z,16.67
2022-12-04T14:13:54.504Z,16.80
2022-12-04T14:16:30.462Z,17.40
2022-12-04T14:19:00.028Z,18.30
2022-12-04T14:21:40.659Z,19.88
2022-12-04T14:24:37.394Z,19.10
2022-12-04T14:27:33.981Z,19.48
2022-12-04T14:30:02.181Z,18.80
2022-12-04T14:32:33.622Z,21.25
2022-12-04T14:35:01.237Z,20.75
2022-12-04T14:37:44.817Z,22.27
2022-12-04T14:40:45.253Z,22.95
2022-12-04T14:43:21.899Z,22.65
2022-12-04T14:45:48.640Z,23.38
2022-12-04T14:48:30.255Z,22.38
2022-12-04T14:51:27.868Z,23.15
2022-12-04T14:54:19.748Z,23.80
2022-12-04T14:57:00.484Z,25.92
2022-12-04T14:59:48.472Z,25.50
2022-12-04T15:02:28.576Z,29.13
2022-12-04T15:04:56.514Z,24.67
2022-12-04T15:07:30.283Z,24.73
2022-12-04T15:10:18.092Z,26.20
2022-12-04T15:12:51.787Z,27.83
2022-12-04T15:15:25.582Z,26.80
2022-12-04T15:17:59.166Z,26.75
2022-12-04T15:20:28.418Z,26.92
2022-12-04T15:22:58.755Z,26.77
2022-12-04T15:25:29.406Z,29.05
2022-12-04T15:28:06.940Z,27.40
2022-12-04T15:30:36.727Z,27.88
2022-12-04T15:33:04.967Z,29.15
2022-12-04T15:35:33.900Z,27.70
2022-12-04T15:38:01.072Z,27.70
2022-12-04T15:40:29.925Z,28.88
2022-12-04T15:43:14.661Z,29.00
2022-12-04T15:45:41.700Z,28.52
2022-12-04T15:48:09.639Z,28.30
2022-12-04T15:50:36.636Z,29.15
2022-12-04T15:53:16.800Z,26.80
2022-12-04T15:55:53.058Z,26.23
2022-12-04T15:58:40.316Z,26.35
2022-12-04T16:01:15.492Z,27.85
2022-12-04T16:03:42.319Z,28.05
2022-12-04T16:06:17.841Z,28.55
2022-12-04T16:08:59.115Z,30.73
2022-12-04T16:11:35.784Z,28.73
2022-12-04T16:14:12.367Z,29.60
2022-12-04T16:16:42.274Z,31.15
2022-12-04T16:19:16.498Z,30.83
2022-12-04T16:21:45.624Z,28.23
2022-12-04T16:24:14.070Z,28.90
2022-12-04T16:26:41.729Z,27.35
2022-12-04T16:29:08.634Z,31.47
2022-12-04T16:31:37.888Z,29.33
2022-12-04T16:34:04.772Z,27.38
2022-12-04T16:36:31.502Z,27.13
2022-12-04T16:38:58.314Z,29.00
2022-12-04T16:41:25.162Z,29.38
2022-12-04T16:43:58.579Z,29.33
2022-12-04T16:46:27.443Z,28.02
2022-12-04T16:48:54.753Z,27.60
2022-12-04T16:51:24.789Z,29.30
2022-12-04T16:53:53.540Z,28.75
2022-12-04T16:58:47.954Z,27.90
2022-12-04T17:01:22.412Z,24.83
2022-12-04T17:03:49.937Z,26.92
2022-12-04T17:06:17.030Z,26.42
2022-12-04T17:08:44.398Z,26.42
2022-12-04T17:11:16.166Z,26.75
2022-12-04T17:13:43.240Z,22.55
2022-12-04T17:16:14.592Z,27.60
2022-12-04T17:18:42.303Z,25.27
2022-12-04T17:21:10.883Z,25.10
2022-12-04T17:23:37.973Z,25.90
2022-12-04T17:26:07.505Z,24.73
2022-12-04T17:28:36.343Z,26.35
2022-12-04T17:31:06.183Z,26.73
2022-12-04T17:33:33.434Z,26.02
2022-12-04T17:36:03.473Z,24.33
2022-12-04T17:38:30.264Z,24.77
2022-12-04T17:41:02.023Z,24.83
2022-12-04T17:43:29.738Z,24.58
2022-12-04T17:45:57.096Z,24.38
2022-12-04T17:48:24.860Z,26.25
2022-12-04T17:51:15.663Z,21.70
2022-12-04T17:53:42.672Z,23.42
2022-12-04T17:56:18.869Z,22.58
2022-12-04T17:58:46.389Z,25.77
2022-12-04T18:01:22.267Z,25.25
2022-12-04T18:03:54.203Z,21.55
2022-12-04T18:06:30.265Z,22.77
2022-12-04T18:08:57.458Z,22.67
2022-12-04T18:11:27.006Z,21.05
2022-12-04T18:13:56.248Z,21.77
2022-12-04T18:16:23.726Z,23.23
2022-12-04T18:18:53.270Z,22.67
2022-12-04T18:21:20.030Z,21.58
2022-12-04T18:23:47.163Z,22.67
2022-12-04T18:26:16.982Z,28.55
2022-12-04T18:28:44.901Z,24.95
2022-12-04T18:31:13.028Z,26.23
2022-12-04T18:33:41.162Z,26.10
2022-12-04T18:36:11.914Z,27.52
2022-12-04T18:38:38.953Z,25.92
2022-12-04T18:41:08.598Z,24.55
2022-12-04T18:43:36.952Z,27.73
2022-12-04T18:46:07.890Z,26.67
2022-12-04T18:48:36.147Z,27.17
2022-12-04T18:51:13.097Z,29.50
2022-12-04T18:53:39.787Z,28.10
2022-12-04T18:56:07.356Z,28.52
2022-12-04T18:58:34.173Z,29.02
2022-12-04T19:01:12.578Z,29.88
2022-12-04T19:03:39.684Z,26.42
2022-12-04T19:06:07.087Z,28.95
2022-12-04T19:08:37.631Z,28.80
2022-12-04T19:11:11.603Z,30.05
2022-12-04T19:13:38.756Z,30.13
2022-12-04T19:16:10.386Z,29.17
2022-12-04T19:18:37.130Z,30.92
2022-12-04T19:21:06.591Z,30.60
2022-12-04T19:23:33.318Z,29.65
2022-12-04T19:26:01.282Z,32.72
2022-12-04T19:28:28.554Z,32.05
2022-12-04T19:30:56.405Z,30.90
2022-12-04T19:33:24.769Z,31.87
2022-12-04T19:36:00.883Z,31.08
2022-12-04T19:38:28.779Z,31.92
2022-12-04T19:41:15.936Z,31.73
2022-12-04T19:43:45.009Z,30.90
2022-12-04T19:46:14.072Z,34.97
2022-12-04T19:48:41.491Z,32.42
2022-12-04T19:51:15.148Z,30.40
2022-12-04T19:53:43.147Z,30.60
2022-12-04T19:56:13.544Z,34.75
2022-12-04T19:58:40.707Z,32.00
2022-12-04T20:01:10.350Z,32.63
2022-12-04T20:03:37.270Z,36.85
2022-12-04T20:06:06.672Z,35.67
2022-12-04T20:08:34.578Z,32.72
2022-12-04T20:11:15.670Z,34.15
2022-12-04T20:13:43.525Z,31.90
2022-12-04T20:16:12.379Z,30.67
2022-12-04T20:18:40.296Z,32.83
2022-12-04T20:21:11.123Z,32.47
2022-12-04T20:23:43.806Z,32.67
2022-12-04T20:26:13.086Z,31.90
2022-12-04T20:28:41.041Z,31.98
2022-12-04T20:31:17.586Z,33.33
2022-12-04T20:33:46.908Z,31.45
2022-12-04T20:36:15.327Z,32.20
2022-12-04T20:38:42.657Z,31.45
2022-12-04T20:41:13.654Z,32.47
2022-12-04T20:43:40.335Z,30.77
2022-12-04T20:46:14.289Z,33.10
2022-12-04T20:48:47.943Z,31.90
2022-12-04T20:51:16.015Z,34.08
2022-12-04T20:53:43.275Z,34.05
2022-12-04T20:56:10.155Z,31.13
2022-12-04T20:58:36.829Z,32.40
2022-12-04T21:01:15.632Z,30.45
2022-12-04T21:03:43.209Z,31.23
2022-12-04T21:06:20.110Z,32.97
2022-12-04T21:08:53.515Z,32.15
2022-12-04T21:11:21.491Z,33.65
2022-12-04T21:14:06.793Z,32.97
2022-12-04T21:16:33.684Z,33.20
2022-12-04T21:19:00.809Z,33.45
2022-12-04T21:21:27.900Z,35.72
2022-12-04T21:23:54.668Z,32.33
2022-12-04T21:26:22.197Z,34.97
2022-12-04T21:28:48.949Z,33.13
2022-12-04T21:31:15.764Z,33.42
2022-12-04T21:33:42.532Z,34.30
2022-12-04T21:36:09.950Z,33.67
2022-12-04T21:38:38.782Z,32.00
2022-12-04T21:43:37.087Z,32.00
2022-12-04T21:46:09.661Z,34.47
2022-12-04T21:48:37.174Z,37.10
2022-12-04T21:51:16.818Z,35.88
2022-12-04T21:53:54.806Z,34.22
2022-12-04T21:56:25.319Z,35.28
2022-12-04T21:58:52.567Z,34.90
2022-12-04T22:01:21.915Z,33.70
2022-12-04T22:03:49.056Z,35.17
2022-12-04T22:06:15.894Z,33.90
2022-12-04T22:08:42.589Z,35.70
2022-12-04T22:11:11.254Z,33.10
2022-12-04T22:13:38.716Z,34.35
2022-12-04T22:16:08.344Z,33.53
2022-12-04T22:18:35.186Z,34.47
2022-12-04T22:21:09.362Z,35.03
2022-12-04T22:23:36.464Z,32.95
2022-12-04T22:26:15.422Z,33.58
2022-12-04T22:28:42.470Z,35.30
2022-12-04T22:31:14.577Z,34.97
2022-12-04T22:33:42.150Z,34.17
2022-12-04T22:36:14.888Z,35.17
2022-12-04T22:39:07.764Z,33.90
2022-12-04T22:41:28.914Z,37.03
2022-12-04T22:43:55.680Z,34.30
2022-12-04T22:46:22.421Z,36.17
2022-12-04T22:48:49.127Z,36.58
2022-12-04T22:51:18.765Z,33.88
2022-12-04T22:53:56.860Z,34.03
2022-12-04T22:56:31.551Z,35.05
2022-12-04T22:58:59.150Z,33.78
2022-12-04T23:01:29.053Z,34.15
2022-12-04T23:03:55.853Z,34.55
2022-12-04T23:06:24.397Z,34.72
2022-12-04T23:09:04.821Z,34.85
2022-12-04T23:11:31.517Z,34.83
2022-12-04T23:14:00.786Z,35.30
2022-12-04T23:16:29.974Z,35.72
2022-12-04T23:18:56.819Z,34.40
2022-12-04T23:21:24.452Z,32.75
2022-12-04T23:23:52.745Z,33.20
2022-12-04T23:26:24.807Z,32.60
2022-12-04T23:28:51.537Z,31.95
2022-12-04T23:31:18.620Z,32.35
2022-12-04T23:33:45.376Z,32.67
2022-12-04T23:36:13.353Z,32.65
2022-12-04T23:38:43.579Z,31.43
2022-12-04T23:41:24.294Z,32.83
2022-12-04T23:43:52.291Z,32.63
2022-12-04T23:46:30.961Z,30.00
2022-12-04T23:48:58.460Z,31.40
2022-12-04T23:51:25.619Z,34.03
2022-12-04T23:53:52.509Z,30.92
2022-12-04T23:56:20.572Z,32.72
2022-12-04T23:58:49.901Z,32.25
